This is the latest recevied weather packets stored in our database for station/object KE8URB. If no packets are shown the sender has not sent any weather packets the latest 1 day(s).
| Time | Temp. | Humidity | Pressure | Rain* | Wind** | Luminosity | Snow |
|---|---|---|---|---|---|---|---|
| 1778098769 | 13.33° C | 62% | 1011.7 hPa | 0 mm | - | 92 W/m² | - |
| 1778098163 | 13.89° C | 62% | 1011.9 hPa | 0 mm | - | 144 W/m² | - |
| 1778097556 | 13.89° C | 63% | 1012 hPa | 0 mm | - | 135 W/m² | - |
| 1778097253 | 13.33° C | 60% | 1011.8 hPa | 0 mm | - | 151 W/m² | - |
| 1778094827 | 13.33° C | 62% | 1011.8 hPa | 0 mm | - | 193 W/m² | - |
| 1778091191 | 12.78° C | 66% | 1012 hPa | 0 mm | - | 156 W/m² | - |
| 1778090888 | 12.78° C | 67% | 1011.8 hPa | 0 mm | - | 133 W/m² | - |
| 1778090280 | 12.78° C | 65% | 1011.8 hPa | 0 mm | - | 193 W/m² | - |
| 1778088766 | 13.33° C | 69% | 1011.5 hPa | 0 mm | - | 166 W/m² | - |
| 1778086343 | 12.78° C | 75% | 1011.9 hPa | 0 mm | - | 240 W/m² | - |
| 1778085434 | 11.67° C | 79% | 1011.9 hPa | 0 mm | - | 213 W/m² | - |
| 1778083311 | 11.11° C | 82% | 1011.5 hPa | 0 mm | - | 181 W/m² | - |
| 1778081265 | 9.44° C | 98% | 1010.8 hPa | 0 mm | - | 135 W/m² | - |
| 1778077028 | 8.89° C | 99% | 1010.3 hPa | 0 mm | - | 105 W/m² | - |
| 1778076726 | 8.33° C | 99% | 1010.1 hPa | 0 mm | - | 119 W/m² | - |
| 1778076120 | 8.33° C | 99% | 1010 hPa | 0 mm | - | 110 W/m² | - |
| 1778075817 | 8.33° C | 99% | 1010 hPa | 0 mm | - | 85 W/m² | - |
| 1778075513 | 8.89° C | 99% | 1009.9 hPa | 0 mm | - | 80 W/m² | - |
| 1778075210 | 8.89° C | 99% | 1009.8 hPa | 0 mm | - | 108 W/m² | - |
| 1778074300 | 8.33° C | 99% | 1009.6 hPa | 0 mm | - | 104 W/m² | - |
| 1778073694 | 8.33° C | 99% | 1009.8 hPa | 0 mm | - | 65 W/m² | - |
| 1778069155 | 7.78° C | 99% | 1009 hPa | 0 mm | - | 9 W/m² | - |
| 1778068248 | 7.22° C | 99% | 1008.4 hPa | 0 mm | - | 10 W/m² | - |
| 1778067341 | 7.22° C | 99% | 1008.9 hPa | 1.27 mm | - | 3 W/m² | - |
| 1778067038 | 7.22° C | 99% | 1008.4 hPa | 1.27 mm | - | 4 W/m² | - |
* Rain latest hour (hover to see other rain measurements)
** Current wind speed in m/s (hover to see current wind gust speed)